createdAt,value
2017-10-28T00:00:19.597Z,1.83
2017-10-28T00:02:47.188Z,2.10
2017-10-28T00:05:14.685Z,1.80
2017-10-28T00:07:42.174Z,2.80
2017-10-28T00:10:09.678Z,2.87
2017-10-28T00:12:37.164Z,3.13
2017-10-28T00:15:05.448Z,3.47
2017-10-28T00:17:32.952Z,2.93
2017-10-28T00:20:00.448Z,3.27
2017-10-28T00:22:27.954Z,5.10
2017-10-28T00:24:55.441Z,3.83
2017-10-28T00:27:22.944Z,2.33
2017-10-28T00:29:50.518Z,2.70
2017-10-28T00:32:23.996Z,2.00
2017-10-28T00:34:57.209Z,1.57
2017-10-28T00:37:24.700Z,2.03
2017-10-28T00:39:52.201Z,2.70
2017-10-28T00:42:19.716Z,1.90
2017-10-28T00:44:47.200Z,2.13
2017-10-28T00:47:14.923Z,1.70
2017-10-28T00:49:42.420Z,2.30
2017-10-28T00:52:10.120Z,1.87
2017-10-28T00:54:37.616Z,2.40
2017-10-28T00:57:05.116Z,2.10
2017-10-28T00:59:32.628Z,1.63
2017-10-28T01:02:00.117Z,2.20
2017-10-28T01:04:28.701Z,2.40
2017-10-28T01:06:57.306Z,2.27
2017-10-28T01:09:25.464Z,1.67
2017-10-28T01:11:53.133Z,2.93
2017-10-28T01:14:21.291Z,2.50
2017-10-28T01:16:49.049Z,1.80
2017-10-28T01:19:16.555Z,1.80
2017-10-28T01:21:44.228Z,2.60
2017-10-28T01:24:11.754Z,2.43
2017-10-28T01:26:39.232Z,3.10
2017-10-28T01:29:06.732Z,3.50
2017-10-28T01:31:34.357Z,4.80
2017-10-28T01:34:02.121Z,6.00
2017-10-28T01:36:29.612Z,4.60
2017-10-28T01:38:57.404Z,4.90
2017-10-28T01:41:24.905Z,5.70
2017-10-28T01:43:52.403Z,3.87
2017-10-28T01:46:20.664Z,4.60
2017-10-28T01:48:48.374Z,3.30
2017-10-28T01:51:15.869Z,4.00
2017-10-28T01:53:43.361Z,3.10
2017-10-28T01:56:11.076Z,2.00
2017-10-28T01:58:38.575Z,2.30
2017-10-28T02:01:06.258Z,2.10
2017-10-28T02:03:34.295Z,2.83
2017-10-28T02:06:01.801Z,1.80
2017-10-28T02:08:29.292Z,2.37
2017-10-28T02:10:58.581Z,1.90
2017-10-28T02:13:26.073Z,2.30
2017-10-28T02:15:53.580Z,1.70
2017-10-28T02:18:21.232Z,2.53
2017-10-28T02:20:48.732Z,3.10
2017-10-28T02:23:16.232Z,2.30
2017-10-28T02:25:43.807Z,2.70
2017-10-28T02:28:11.287Z,1.83
2017-10-28T02:30:38.801Z,2.20
2017-10-28T02:33:06.720Z,1.90
2017-10-28T02:35:34.208Z,2.20
2017-10-28T02:38:02.477Z,1.80
2017-10-28T02:40:29.975Z,1.67
2017-10-28T02:42:57.628Z,2.00
2017-10-28T02:45:25.122Z,1.63
2017-10-28T02:47:52.737Z,3.70
2017-10-28T02:50:20.336Z,1.70
2017-10-28T02:52:47.872Z,2.90
2017-10-28T02:55:15.519Z,2.13
2017-10-28T02:57:43.017Z,1.93
2017-10-28T03:00:10.513Z,2.50
2017-10-28T03:02:38.025Z,1.60
2017-10-28T03:05:05.649Z,1.47
2017-10-28T03:07:33.272Z,1.77
2017-10-28T03:10:00.918Z,1.90
2017-10-28T03:12:28.416Z,1.40
2017-10-28T03:14:55.967Z,1.47
2017-10-28T03:17:23.680Z,2.47
2017-10-28T03:19:51.485Z,1.70
2017-10-28T03:22:18.988Z,3.07
2017-10-28T03:24:46.488Z,2.20
2017-10-28T03:27:13.985Z,2.87
2017-10-28T03:29:41.720Z,1.63
2017-10-28T03:32:09.986Z,3.00
2017-10-28T03:34:38.053Z,2.40
2017-10-28T03:37:05.551Z,2.90
2017-10-28T03:39:33.999Z,2.60
2017-10-28T03:42:01.533Z,2.00
2017-10-28T03:44:29.044Z,2.40
2017-10-28T03:46:56.752Z,2.67
2017-10-28T03:49:24.508Z,2.10
2017-10-28T03:51:52.004Z,2.53
2017-10-28T03:54:19.515Z,2.63
2017-10-28T03:56:47.122Z,2.33
2017-10-28T03:59:14.612Z,2.47
2017-10-28T04:01:42.326Z,2.17
2017-10-28T04:04:09.820Z,3.00
2017-10-28T04:06:37.325Z,2.27
2017-10-28T04:09:04.819Z,1.90
2017-10-28T04:11:32.503Z,1.90
2017-10-28T04:14:00.011Z,2.63
2017-10-28T04:16:27.501Z,2.50
2017-10-28T04:18:55.174Z,1.97
2017-10-28T04:21:22.678Z,1.93
2017-10-28T04:23:50.167Z,2.20
2017-10-28T04:26:17.681Z,2.90
2017-10-28T04:28:45.657Z,1.67
2017-10-28T04:31:13.147Z,1.57
2017-10-28T04:33:40.667Z,3.90
2017-10-28T04:36:08.166Z,2.00
2017-10-28T04:38:35.675Z,1.70
2017-10-28T04:41:03.177Z,2.10
2017-10-28T04:43:30.671Z,1.83
2017-10-28T04:45:58.464Z,1.97
2017-10-28T04:48:26.756Z,2.10
2017-10-28T04:50:54.248Z,2.00
2017-10-28T04:53:21.749Z,1.80
2017-10-28T04:55:49.241Z,2.60
2017-10-28T04:58:16.749Z,2.97
2017-10-28T05:00:44.232Z,2.10
2017-10-28T05:03:11.734Z,2.50
2017-10-28T05:05:39.989Z,2.90
2017-10-28T05:08:08.318Z,2.97
2017-10-28T05:10:35.812Z,2.40
2017-10-28T05:13:03.316Z,2.63
2017-10-28T05:15:30.819Z,1.47
2017-10-28T05:17:58.320Z,2.20
2017-10-28T05:20:26.576Z,1.67
2017-10-28T05:22:54.079Z,2.87
2017-10-28T05:25:21.629Z,2.83
2017-10-28T05:27:49.216Z,2.53
2017-10-28T05:30:16.717Z,2.50
2017-10-28T05:32:44.212Z,2.17
2017-10-28T05:35:11.713Z,2.50
2017-10-28T05:37:39.200Z,2.70
2017-10-28T05:40:07.479Z,3.37
2017-10-28T05:42:34.980Z,3.07
2017-10-28T05:45:02.480Z,2.77
2017-10-28T05:47:30.760Z,2.77
2017-10-28T05:49:58.267Z,3.40
2017-10-28T05:52:25.889Z,3.80
2017-10-28T05:54:53.487Z,2.57
2017-10-28T05:57:20.980Z,2.80
2017-10-28T05:59:48.492Z,2.50
2017-10-28T06:02:15.995Z,2.50
2017-10-28T06:04:43.494Z,2.63
2017-10-28T06:07:11.520Z,2.13
2017-10-28T06:09:39.030Z,2.83
2017-10-28T06:12:06.529Z,3.27
2017-10-28T06:14:34.052Z,2.50
2017-10-28T06:17:01.540Z,3.33
2017-10-28T06:19:29.059Z,4.17
2017-10-28T06:21:56.803Z,3.10
2017-10-28T06:24:24.349Z,2.20
2017-10-28T06:26:52.784Z,3.60
2017-10-28T06:29:20.801Z,2.23
2017-10-28T06:31:48.300Z,2.60
2017-10-28T06:34:15.817Z,3.73
2017-10-28T06:36:43.548Z,3.40
2017-10-28T06:39:11.124Z,3.40
2017-10-28T06:41:38.620Z,2.97
2017-10-28T06:44:06.113Z,2.70
2017-10-28T06:46:33.632Z,2.77
2017-10-28T06:49:01.161Z,4.10
2017-10-28T06:51:29.200Z,3.73
2017-10-28T06:53:56.703Z,3.00
2017-10-28T06:56:24.380Z,3.50
2017-10-28T06:58:51.929Z,2.10
2017-10-28T07:01:19.601Z,2.77
2017-10-28T07:03:47.100Z,2.40
2017-10-28T07:06:14.684Z,3.30
2017-10-28T07:08:42.953Z,2.60
2017-10-28T07:11:10.451Z,2.53
2017-10-28T07:13:38.140Z,2.57
2017-10-28T07:16:05.632Z,4.10
2017-10-28T07:18:33.372Z,2.73
2017-10-28T07:21:01.132Z,2.57
2017-10-28T07:23:28.658Z,3.30
2017-10-28T07:25:56.351Z,2.63
2017-10-28T07:28:23.990Z,2.50
2017-10-28T07:30:51.492Z,3.43
2017-10-28T07:33:19.764Z,2.77
2017-10-28T07:35:47.400Z,2.50
2017-10-28T07:38:14.915Z,3.30
2017-10-28T07:40:42.620Z,3.30
2017-10-28T07:43:10.132Z,2.80
2017-10-28T07:45:37.633Z,2.53
2017-10-28T07:48:05.132Z,2.90
2017-10-28T07:50:33.407Z,2.67
2017-10-28T07:53:00.912Z,3.20
2017-10-28T07:55:28.581Z,2.70
2017-10-28T07:57:56.292Z,3.20
2017-10-28T08:00:24.007Z,2.37
2017-10-28T08:02:52.123Z,2.93
2017-10-28T08:05:19.660Z,3.20
2017-10-28T08:07:47.140Z,2.57
2017-10-28T08:10:14.705Z,3.50
2017-10-28T08:12:42.967Z,3.07
2017-10-28T08:15:10.669Z,2.17
2017-10-28T08:17:39.089Z,3.60
2017-10-28T08:20:06.602Z,4.00
2017-10-28T08:22:34.096Z,2.23
2017-10-28T08:25:01.636Z,2.50
2017-10-28T08:27:29.226Z,2.30
2017-10-28T08:29:56.729Z,2.90
2017-10-28T08:32:24.394Z,3.57
2017-10-28T08:34:51.893Z,2.70
2017-10-28T08:37:19.422Z,3.50
2017-10-28T08:39:47.104Z,3.10
2017-10-28T08:42:14.612Z,2.80
2017-10-28T08:44:42.124Z,2.23
2017-10-28T08:47:09.781Z,2.90
2017-10-28T08:49:37.536Z,3.83
2017-10-28T08:52:06.019Z,2.83
2017-10-28T08:54:33.904Z,2.13
2017-10-28T08:57:01.429Z,3.03
2017-10-28T08:59:28.940Z,3.27
2017-10-28T09:01:56.655Z,2.47
2017-10-28T09:04:24.157Z,2.67
2017-10-28T09:06:51.672Z,3.20
2017-10-28T09:09:19.288Z,3.33
2017-10-28T09:11:46.953Z,2.73
2017-10-28T09:14:15.942Z,2.50
2017-10-28T09:16:44.260Z,3.20
2017-10-28T09:19:13.616Z,2.97
2017-10-28T09:21:41.888Z,2.70
2017-10-28T09:24:09.392Z,2.57
2017-10-28T09:26:37.534Z,3.27
2017-10-28T09:29:05.868Z,1.50
2017-10-28T09:31:33.492Z,2.37
2017-10-28T09:34:01.000Z,3.20
2017-10-28T09:36:28.508Z,2.67
2017-10-28T09:38:56.021Z,3.30
2017-10-28T09:41:23.549Z,3.83
2017-10-28T09:43:51.067Z,2.80
2017-10-28T09:46:18.576Z,3.40
2017-10-28T09:48:46.093Z,2.47
2017-10-28T09:51:13.757Z,2.50
2017-10-28T09:53:41.276Z,2.37
2017-10-28T09:56:09.000Z,3.17
2017-10-28T09:58:36.766Z,2.50
2017-10-28T10:01:04.531Z,4.50
2017-10-28T10:03:32.477Z,3.00
2017-10-28T10:06:00.580Z,3.20
2017-10-28T10:08:28.079Z,4.27
2017-10-28T10:10:55.596Z,2.93
2017-10-28T10:13:23.133Z,3.70
2017-10-28T10:15:50.644Z,4.20
2017-10-28T10:18:18.912Z,3.67
2017-10-28T10:20:46.825Z,3.73
2017-10-28T10:23:14.375Z,2.70
2017-10-28T10:25:42.164Z,4.13
2017-10-28T10:28:09.677Z,3.90
2017-10-28T10:30:37.399Z,3.40
2017-10-28T10:33:05.150Z,4.23
2017-10-28T10:35:32.682Z,3.53
2017-10-28T10:38:00.176Z,3.80
2017-10-28T10:40:28.445Z,4.63
2017-10-28T10:42:55.944Z,3.97
2017-10-28T10:45:23.656Z,4.87
2017-10-28T10:47:51.160Z,5.00
2017-10-28T10:50:18.676Z,2.93
2017-10-28T10:52:46.943Z,3.80
2017-10-28T10:55:14.460Z,4.23
2017-10-28T10:57:41.972Z,4.50
2017-10-28T11:00:09.471Z,4.23
2017-10-28T11:02:38.444Z,4.00
2017-10-28T11:05:05.948Z,3.20
2017-10-28T11:07:33.548Z,4.23
2017-10-28T11:10:01.079Z,4.43
2017-10-28T11:12:28.584Z,3.83
2017-10-28T11:14:56.877Z,4.70
2017-10-28T11:17:24.557Z,2.93
2017-10-28T11:19:52.069Z,4.00
2017-10-28T11:22:20.457Z,3.60
2017-10-28T11:24:47.994Z,4.30
2017-10-28T11:27:15.516Z,6.97
2017-10-28T11:29:43.548Z,4.00
2017-10-28T11:32:11.862Z,4.33
2017-10-28T11:34:39.543Z,4.00
2017-10-28T11:37:07.305Z,4.80
2017-10-28T11:39:35.085Z,4.90
2017-10-28T11:42:02.588Z,4.23
2017-10-28T11:44:30.860Z,4.57
2017-10-28T11:46:58.364Z,4.90
2017-10-28T11:49:25.884Z,4.03
2017-10-28T11:51:53.589Z,2.70
2017-10-28T11:54:21.104Z,4.80
2017-10-28T11:56:48.799Z,5.00
2017-10-28T11:59:16.356Z,6.10
2017-10-28T12:01:44.020Z,4.50
2017-10-28T12:04:11.672Z,3.30
2017-10-28T12:06:39.241Z,3.90
2017-10-28T12:09:07.165Z,6.87
2017-10-28T12:11:35.868Z,2.57
2017-10-28T12:14:03.427Z,5.90
2017-10-28T12:16:30.923Z,5.27
2017-10-28T12:18:58.428Z,3.33
2017-10-28T12:21:25.954Z,4.73
2017-10-28T12:23:54.290Z,3.90
2017-10-28T12:26:21.790Z,3.70
2017-10-28T12:28:49.388Z,4.30
2017-10-28T12:31:17.188Z,3.80
2017-10-28T12:33:44.692Z,3.37
2017-10-28T12:36:12.343Z,5.77
2017-10-28T12:38:39.854Z,4.30
2017-10-28T12:41:07.393Z,5.13
2017-10-28T12:43:34.939Z,4.53
2017-10-28T12:46:02.516Z,4.77
2017-10-28T12:48:30.384Z,4.53
2017-10-28T12:50:57.891Z,6.37
2017-10-28T12:53:25.764Z,6.47
2017-10-28T12:55:53.289Z,4.13
2017-10-28T12:58:20.789Z,5.03
2017-10-28T13:00:48.290Z,4.37
2017-10-28T13:03:15.954Z,5.80
2017-10-28T13:05:43.448Z,4.77
2017-10-28T13:08:10.968Z,5.97
2017-10-28T13:10:38.640Z,4.27
2017-10-28T13:13:06.764Z,3.33
2017-10-28T13:15:34.273Z,4.90
2017-10-28T13:18:01.910Z,3.10
2017-10-28T13:20:29.404Z,4.50
2017-10-28T13:22:56.922Z,4.07
2017-10-28T13:25:24.439Z,4.60
2017-10-28T13:27:52.060Z,4.20
2017-10-28T13:30:19.567Z,4.47
2017-10-28T13:32:47.098Z,2.90
2017-10-28T13:35:14.736Z,3.97
2017-10-28T13:37:42.499Z,6.63
2017-10-28T13:40:10.200Z,5.30
2017-10-28T13:42:37.720Z,4.47
2017-10-28T13:45:05.228Z,5.43
2017-10-28T13:47:32.951Z,4.70
2017-10-28T13:50:00.458Z,4.23
2017-10-28T13:52:28.886Z,5.23
2017-10-28T13:54:56.543Z,4.17
2017-10-28T13:57:24.054Z,4.30
2017-10-28T13:59:51.742Z,4.97
2017-10-28T14:02:19.524Z,5.40
2017-10-28T14:04:47.036Z,4.13
2017-10-28T14:07:14.617Z,5.30
2017-10-28T14:09:42.200Z,5.13
2017-10-28T14:12:09.701Z,5.53
2017-10-28T14:14:37.396Z,5.20
2017-10-28T14:17:04.891Z,4.53
2017-10-28T14:19:32.412Z,5.87
2017-10-28T14:21:59.912Z,3.97
2017-10-28T14:24:27.465Z,6.90
2017-10-28T14:26:54.981Z,6.23
2017-10-28T14:29:22.499Z,4.60
2017-10-28T14:31:50.006Z,4.83
2017-10-28T14:34:17.547Z,3.93
2017-10-28T14:36:45.809Z,4.13
2017-10-28T14:39:14.222Z,4.80
2017-10-28T14:41:41.717Z,5.60
2017-10-28T14:44:09.358Z,5.87
2017-10-28T14:46:37.125Z,6.13
2017-10-28T14:49:04.833Z,5.30
2017-10-28T14:51:32.352Z,4.27
2017-10-28T14:53:59.854Z,4.00
2017-10-28T14:56:27.364Z,4.63
2017-10-28T14:58:54.870Z,4.87
2017-10-28T15:01:22.444Z,5.77
2017-10-28T15:03:50.252Z,6.23
2017-10-28T15:06:18.008Z,5.77
2017-10-28T15:08:45.771Z,6.77
2017-10-28T15:11:13.284Z,4.40
2017-10-28T15:13:40.777Z,4.63
2017-10-28T15:16:08.436Z,5.10
2017-10-28T15:18:36.057Z,4.67
2017-10-28T15:21:03.656Z,5.13
2017-10-28T15:23:31.169Z,5.00
2017-10-28T15:25:58.692Z,5.10
2017-10-28T15:28:26.192Z,5.53
2017-10-28T15:30:53.716Z,4.20
2017-10-28T15:33:21.247Z,3.93
2017-10-28T15:35:48.752Z,4.80
2017-10-28T15:38:16.298Z,4.10
2017-10-28T15:40:43.807Z,4.73
2017-10-28T15:43:11.320Z,5.20
2017-10-28T15:45:38.825Z,4.23
2017-10-28T15:48:06.617Z,5.53
2017-10-28T15:50:34.385Z,4.80
2017-10-28T15:53:01.903Z,4.27
2017-10-28T15:55:29.580Z,4.87
2017-10-28T15:57:57.093Z,3.80
2017-10-28T16:00:24.625Z,3.60
2017-10-28T16:02:52.124Z,4.00
2017-10-28T16:05:19.640Z,3.90
2017-10-28T16:07:47.186Z,4.77
2017-10-28T16:10:14.700Z,3.70
2017-10-28T16:12:42.373Z,4.17
2017-10-28T16:15:09.877Z,3.60
2017-10-28T16:17:37.395Z,4.97
2017-10-28T16:20:05.073Z,4.77
2017-10-28T16:22:32.602Z,4.03
2017-10-28T16:25:00.101Z,3.70
2017-10-28T16:27:27.760Z,2.93
2017-10-28T16:29:56.791Z,3.00
2017-10-28T16:32:24.316Z,5.10
2017-10-28T16:34:51.823Z,3.60
2017-10-28T16:37:19.361Z,3.60
2017-10-28T16:39:46.864Z,3.33
2017-10-28T16:42:14.645Z,2.87
2017-10-28T16:44:42.415Z,3.80
2017-10-28T16:47:10.710Z,2.70
2017-10-28T16:49:38.729Z,2.73
2017-10-28T16:52:07.486Z,2.13
2017-10-28T16:54:35.017Z,2.30
2017-10-28T16:57:02.537Z,2.70
2017-10-28T16:59:30.036Z,1.67
2017-10-28T17:01:57.552Z,2.30
2017-10-28T17:04:25.052Z,2.30
2017-10-28T17:06:52.571Z,2.53
2017-10-28T17:09:20.088Z,1.93
2017-10-28T17:11:47.621Z,2.13
2017-10-28T17:14:15.227Z,2.10
2017-10-28T17:16:43.023Z,2.60
2017-10-28T17:19:10.518Z,2.27
2017-10-28T17:21:38.245Z,2.63
2017-10-28T17:24:05.853Z,3.00
2017-10-28T17:26:34.196Z,2.30
2017-10-28T17:29:01.861Z,3.00
2017-10-28T17:31:29.377Z,2.83
2017-10-28T17:33:57.024Z,3.10
2017-10-28T17:36:24.823Z,2.20
2017-10-28T17:38:52.332Z,3.40
2017-10-28T17:41:24.141Z,2.53
2017-10-28T17:43:55.994Z,2.70
2017-10-28T17:46:23.649Z,2.17
2017-10-28T17:48:51.805Z,1.57
2017-10-28T17:51:19.407Z,1.87
2017-10-28T17:53:47.599Z,2.07
2017-10-28T17:56:15.892Z,2.37
2017-10-28T17:58:43.399Z,1.83
2017-10-28T18:01:10.912Z,1.97
2017-10-28T18:03:39.172Z,1.67
2017-10-28T18:06:06.726Z,1.97
2017-10-28T18:08:34.236Z,1.90
2017-10-28T18:11:01.784Z,1.77
2017-10-28T18:13:29.297Z,1.23
2017-10-28T18:15:57.657Z,1.50
2017-10-28T18:18:25.156Z,1.90
2017-10-28T18:20:52.676Z,3.63
2017-10-28T18:23:20.284Z,1.07
2017-10-28T18:25:47.798Z,1.40
2017-10-28T18:28:15.291Z,1.97
2017-10-28T18:30:42.977Z,1.40
2017-10-28T18:33:10.497Z,1.60
2017-10-28T18:35:38.211Z,2.23
2017-10-28T18:38:05.716Z,2.20
2017-10-28T18:40:33.220Z,2.20
2017-10-28T18:43:00.881Z,1.67
2017-10-28T18:45:28.376Z,1.70
2017-10-28T18:47:55.893Z,1.80
2017-10-28T18:50:23.408Z,1.43
2017-10-28T18:52:51.688Z,1.10
2017-10-28T18:55:19.208Z,1.20
2017-10-28T18:57:46.866Z,1.20
2017-10-28T19:00:14.375Z,1.90
2017-10-28T19:02:42.066Z,2.17
2017-10-28T19:05:09.552Z,1.30
2017-10-28T19:07:37.288Z,1.80
2017-10-28T19:10:04.784Z,2.27
2017-10-28T19:12:32.291Z,1.30
2017-10-28T19:14:59.798Z,2.43
2017-10-28T19:17:27.321Z,1.50
2017-10-28T19:19:54.832Z,2.00
2017-10-28T19:22:22.340Z,2.20
2017-10-28T19:24:50.059Z,2.27
2017-10-28T19:27:17.564Z,2.50
2017-10-28T19:29:45.076Z,1.80
2017-10-28T19:32:12.581Z,1.90
2017-10-28T19:34:40.099Z,3.13
2017-10-28T19:37:07.875Z,2.50
2017-10-28T19:39:35.388Z,2.17
2017-10-28T19:42:03.658Z,2.17
2017-10-28T19:44:31.952Z,2.40
2017-10-28T19:47:01.126Z,2.73
2017-10-28T19:49:28.758Z,2.13
2017-10-28T19:51:56.507Z,1.90
2017-10-28T19:54:24.025Z,2.03
2017-10-28T19:56:51.530Z,1.90
2017-10-28T19:59:19.045Z,1.67
2017-10-28T20:01:46.539Z,1.43
2017-10-28T20:04:14.370Z,1.80
2017-10-28T20:06:42.097Z,1.97
2017-10-28T20:09:09.592Z,1.70
2017-10-28T20:11:37.129Z,2.37
2017-10-28T20:14:04.764Z,2.30
2017-10-28T20:16:32.273Z,2.37
2017-10-28T20:18:59.804Z,1.20
2017-10-28T20:21:28.051Z,2.53
2017-10-28T20:23:55.555Z,1.87
2017-10-28T20:26:23.837Z,2.00
2017-10-28T20:28:51.343Z,2.77
2017-10-28T20:31:18.845Z,1.80
2017-10-28T20:33:46.360Z,2.73
2017-10-28T20:36:13.861Z,2.97
2017-10-28T20:38:42.169Z,3.10
2017-10-28T20:41:09.937Z,2.20
2017-10-28T20:43:37.515Z,3.37
2017-10-28T20:46:05.093Z,4.27
2017-10-28T20:48:32.600Z,4.17
2017-10-28T20:51:00.132Z,3.80
2017-10-28T20:53:28.410Z,2.63
2017-10-28T20:55:56.031Z,3.20
2017-10-28T20:58:23.567Z,3.37
2017-10-28T21:00:51.084Z,3.17
2017-10-28T21:03:18.596Z,2.60
2017-10-28T21:05:46.099Z,2.77
2017-10-28T21:08:14.374Z,3.20
2017-10-28T21:10:42.104Z,2.10
2017-10-28T21:13:09.635Z,2.60
2017-10-28T21:15:37.295Z,2.47
2017-10-28T21:18:04.793Z,3.13
2017-10-28T21:20:32.301Z,2.47
2017-10-28T21:23:00.081Z,3.93
2017-10-28T21:25:27.799Z,2.23
2017-10-28T21:27:55.311Z,2.50
2017-10-28T21:30:22.963Z,2.93
2017-10-28T21:32:50.534Z,3.00
2017-10-28T21:35:18.076Z,2.47
2017-10-28T21:37:45.591Z,3.13
2017-10-28T21:40:13.883Z,3.60
2017-10-28T21:42:42.155Z,3.00
2017-10-28T21:45:09.656Z,3.60
2017-10-28T21:47:37.175Z,4.43
2017-10-28T21:50:05.451Z,3.90
2017-10-28T21:52:32.970Z,2.63
2017-10-28T21:55:00.620Z,4.23
2017-10-28T21:57:28.116Z,3.23
2017-10-28T21:59:55.628Z,5.70
2017-10-28T22:02:23.135Z,5.03
2017-10-28T22:04:51.407Z,4.80
2017-10-28T22:07:19.820Z,3.57
2017-10-28T22:09:47.331Z,2.73
2017-10-28T22:12:14.970Z,2.97
2017-10-28T22:14:42.913Z,2.90
2017-10-28T22:17:10.783Z,3.03
2017-10-28T22:19:39.061Z,2.70
2017-10-28T22:22:06.560Z,4.67
2017-10-28T22:24:35.010Z,3.43
2017-10-28T22:27:02.529Z,2.93
2017-10-28T22:29:30.036Z,5.57
2017-10-28T22:31:57.689Z,4.13
2017-10-28T22:34:25.189Z,5.73
2017-10-28T22:36:52.688Z,3.67
2017-10-28T22:39:20.364Z,4.57
2017-10-28T22:41:47.881Z,3.27
2017-10-28T22:44:15.388Z,3.50
2017-10-28T22:46:43.040Z,4.30
2017-10-28T22:49:10.800Z,4.73
2017-10-28T22:51:39.120Z,4.70
2017-10-28T22:54:06.625Z,5.27
2017-10-28T22:56:34.132Z,3.20
2017-10-28T22:59:01.773Z,4.27
2017-10-28T23:01:29.272Z,4.17
2017-10-28T23:03:56.776Z,4.50
2017-10-28T23:06:24.315Z,4.90
2017-10-28T23:08:51.990Z,3.30
2017-10-28T23:11:19.499Z,4.90
2017-10-28T23:13:47.001Z,3.40
2017-10-28T23:16:14.638Z,3.57
2017-10-28T23:18:42.423Z,2.20
2017-10-28T23:21:09.940Z,3.67
2017-10-28T23:23:38.488Z,3.00
2017-10-28T23:26:05.972Z,2.87
2017-10-28T23:28:33.500Z,2.77
2017-10-28T23:31:00.988Z,3.03
2017-10-28T23:33:28.496Z,3.10
2017-10-28T23:35:56.006Z,3.60
2017-10-28T23:38:24.279Z,2.50
2017-10-28T23:40:52.006Z,3.10
2017-10-28T23:43:19.508Z,4.17
2017-10-28T23:45:47.003Z,5.47
2017-10-28T23:48:14.519Z,3.17
2017-10-28T23:50:42.792Z,3.70
2017-10-28T23:53:10.476Z,2.73
2017-10-28T23:55:37.981Z,3.20
2017-10-28T23:58:05.719Z,3.00
